createdAt,value
2023-05-24T05:00:56.198Z,1009.18
2023-05-24T05:01:56.156Z,1009.23
2023-05-24T05:02:56.236Z,1009.18
2023-05-24T05:03:56.113Z,1009.16
2023-05-24T05:04:56.110Z,1009.13
2023-05-24T05:05:56.081Z,1009.19
2023-05-24T05:06:56.067Z,1009.19
2023-05-24T05:07:56.074Z,1009.22
2023-05-24T05:08:56.044Z,1009.25
2023-05-24T05:09:56.034Z,1009.29
2023-05-24T05:10:56.059Z,1009.31
2023-05-24T05:12:01.029Z,1009.25
2023-05-24T05:12:55.998Z,1009.22
2023-05-24T05:13:55.991Z,1009.27
2023-05-24T05:14:55.984Z,1009.32
2023-05-24T05:15:55.987Z,1009.32
2023-05-24T05:16:55.996Z,1009.30
2023-05-24T05:17:55.958Z,1009.30
2023-05-24T05:18:55.943Z,1009.30
2023-05-24T05:19:55.947Z,1009.21
2023-05-24T05:20:55.903Z,1009.24
2023-05-24T05:21:55.901Z,1009.25
2023-05-24T05:23:00.901Z,1009.24
2023-05-24T05:23:55.876Z,1009.30
2023-05-24T05:24:55.852Z,1009.24
2023-05-24T05:25:55.843Z,1009.18
2023-05-24T05:26:55.846Z,1009.24
2023-05-24T05:27:55.844Z,1009.22
2023-05-24T05:28:55.838Z,1009.21
2023-05-24T05:29:55.802Z,1009.22
2023-05-24T05:30:55.793Z,1009.25
2023-05-24T05:31:55.788Z,1009.21
2023-05-24T05:32:55.855Z,1009.23
2023-05-24T05:34:00.816Z,1009.16
2023-05-24T05:34:55.755Z,1009.23
2023-05-24T05:35:55.731Z,1009.24
2023-05-24T05:36:55.719Z,1009.32
2023-05-24T05:37:55.716Z,1009.32
2023-05-24T05:38:55.699Z,1009.33
2023-05-24T05:39:55.706Z,1009.33
2023-05-24T05:40:55.674Z,1009.32
2023-05-24T05:41:55.668Z,1009.34
2023-05-24T05:42:55.666Z,1009.32
2023-05-24T05:43:55.646Z,1009.27
2023-05-24T05:45:00.664Z,1009.31
2023-05-24T05:45:55.692Z,1009.33
2023-05-24T05:46:55.607Z,1009.32
2023-05-24T05:47:55.690Z,1009.28
2023-05-24T05:48:55.604Z,1009.32
2023-05-24T05:49:55.575Z,1009.35
2023-05-24T05:50:55.557Z,1009.30
2023-05-24T05:51:55.573Z,1009.36
2023-05-24T05:52:55.551Z,1009.35
2023-05-24T05:53:55.532Z,1009.39
2023-05-24T05:54:55.539Z,1009.35
2023-05-24T05:56:00.542Z,1009.38
2023-05-24T05:56:55.498Z,1009.34
2023-05-24T05:57:55.494Z,1009.39
2023-05-24T05:58:55.469Z,1009.37
2023-05-24T05:59:55.512Z,1009.40
2023-05-24T06:00:55.474Z,1009.38
2023-05-24T06:01:55.480Z,1009.39
2023-05-24T06:02:55.518Z,1009.37
2023-05-24T06:03:55.528Z,1009.42
2023-05-24T06:04:55.486Z,1009.41
2023-05-24T06:05:55.400Z,1009.43
2023-05-24T06:07:00.416Z,1009.44
2023-05-24T06:07:55.364Z,1009.40
2023-05-24T06:08:55.358Z,1009.44
2023-05-24T06:09:55.362Z,1009.39
2023-05-24T06:10:55.404Z,1009.48
2023-05-24T06:11:55.342Z,1009.45
2023-05-24T06:12:55.309Z,1009.48
2023-05-24T06:13:55.297Z,1009.51
2023-05-24T06:14:55.281Z,1009.48
2023-05-24T06:15:55.332Z,1009.46
2023-05-24T06:16:56.265Z,1009.44
2023-05-24T06:18:00.327Z,1009.57
2023-05-24T06:19:05.500Z,1009.55
2023-05-24T06:19:55.266Z,1009.51
2023-05-24T06:20:55.266Z,1009.52
2023-05-24T06:21:55.228Z,1009.53
2023-05-24T06:22:55.209Z,1009.61
2023-05-24T06:23:55.188Z,1009.58
2023-05-24T06:24:55.195Z,1009.61
2023-05-24T06:25:55.158Z,1009.54
2023-05-24T06:26:55.156Z,1009.50
2023-05-24T06:27:55.156Z,1009.54
2023-05-24T06:29:00.143Z,1009.51
2023-05-24T06:29:55.213Z,1009.56
2023-05-24T06:30:55.203Z,1009.53
2023-05-24T06:31:55.126Z,1009.53
2023-05-24T06:32:55.145Z,1009.60
2023-05-24T06:34:03.781Z,1009.60
2023-05-24T06:34:55.070Z,1009.55
2023-05-24T06:35:55.048Z,1009.60
2023-05-24T06:36:55.052Z,1009.57
2023-05-24T06:37:55.038Z,1009.64
2023-05-24T06:38:55.070Z,1009.59
2023-05-24T06:40:00.101Z,1009.50
2023-05-24T06:40:54.990Z,1009.66
2023-05-24T06:41:54.976Z,1009.67
2023-05-24T06:42:54.964Z,1009.58
2023-05-24T06:43:55.003Z,1009.61
2023-05-24T06:44:54.942Z,1009.60
2023-05-24T06:45:54.956Z,1009.62
2023-05-24T06:46:54.973Z,1009.59
2023-05-24T06:47:54.968Z,1009.54
2023-05-24T06:48:55.076Z,1009.60
2023-05-24T06:49:54.892Z,1009.55
2023-05-24T06:50:59.904Z,1009.69
2023-05-24T06:51:55.250Z,1009.67
2023-05-24T06:52:54.940Z,1009.62
2023-05-24T06:53:54.922Z,1009.58
2023-05-24T06:54:54.874Z,1009.63
2023-05-24T06:55:56.924Z,1009.68
2023-05-24T06:56:54.809Z,1009.65
2023-05-24T06:57:54.864Z,1009.64
2023-05-24T06:58:54.786Z,1009.59
2023-05-24T06:59:54.776Z,1009.60
2023-05-24T07:00:54.802Z,1009.63
2023-05-24T07:02:01.994Z,1009.68
2023-05-24T07:02:54.816Z,1009.74
2023-05-24T07:03:54.756Z,1009.63
2023-05-24T07:04:54.839Z,1009.70
2023-05-24T07:05:54.704Z,1009.76
2023-05-24T07:06:54.696Z,1009.71
2023-05-24T07:07:54.697Z,1009.73
2023-05-24T07:08:54.735Z,1009.71
2023-05-24T07:09:54.691Z,1009.74
2023-05-24T07:10:54.661Z,1009.78
2023-05-24T07:11:54.655Z,1009.70
2023-05-24T07:12:59.661Z,1009.70
2023-05-24T07:13:54.612Z,1009.74
2023-05-24T07:14:54.601Z,1009.78
2023-05-24T07:15:54.606Z,1009.69
2023-05-24T07:16:54.617Z,1009.88
2023-05-24T07:17:54.603Z,1009.84
2023-05-24T07:18:54.556Z,1009.86
2023-05-24T07:19:54.571Z,1009.82
2023-05-24T07:20:54.568Z,1009.84
2023-05-24T07:21:54.642Z,1009.85
2023-05-24T07:22:54.516Z,1009.80
2023-05-24T07:23:59.583Z,1009.81
2023-05-24T07:24:54.488Z,1009.85
2023-05-24T07:25:54.482Z,1009.86
2023-05-24T07:26:54.471Z,1009.92
2023-05-24T07:27:54.470Z,1009.93
2023-05-24T07:28:54.440Z,1009.86
2023-05-24T07:29:54.437Z,1009.89
2023-05-24T07:30:54.425Z,1009.81
2023-05-24T07:31:54.523Z,1009.78
2023-05-24T07:32:54.482Z,1009.89
2023-05-24T07:33:54.401Z,1009.91
2023-05-24T07:34:59.398Z,1009.82
2023-05-24T07:35:54.389Z,1009.84
2023-05-24T07:36:54.353Z,1009.85
2023-05-24T07:37:54.341Z,1009.86
2023-05-24T07:38:54.328Z,1009.84
2023-05-24T07:39:54.399Z,1009.93
2023-05-24T07:40:54.318Z,1009.85
2023-05-24T07:41:54.337Z,1009.82
2023-05-24T07:42:54.285Z,1009.81
2023-05-24T07:43:54.277Z,1009.84
2023-05-24T07:44:54.273Z,1009.81
2023-05-24T07:45:59.373Z,1009.79
2023-05-24T07:46:54.279Z,1009.78
2023-05-24T07:47:56.704Z,1009.81
2023-05-24T07:48:54.221Z,1009.84
2023-05-24T07:49:54.224Z,1009.80
2023-05-24T07:50:54.205Z,1009.79
2023-05-24T07:51:54.195Z,1009.83
2023-05-24T07:52:54.176Z,1009.83
2023-05-24T07:53:54.171Z,1009.78
2023-05-24T07:54:54.167Z,1009.79
2023-05-24T07:55:54.186Z,1009.71
2023-05-24T07:56:59.160Z,1009.75
2023-05-24T07:57:54.150Z,1009.78
2023-05-24T07:58:54.120Z,1009.72
2023-05-24T07:59:54.138Z,1009.75
2023-05-24T08:00:54.097Z,1009.75
2023-05-24T08:01:54.080Z,1009.76
2023-05-24T08:02:54.169Z,1009.76
2023-05-24T08:03:54.151Z,1009.68
2023-05-24T08:04:54.074Z,1009.65
2023-05-24T08:05:54.034Z,1009.68
2023-05-24T08:06:54.110Z,1009.73
2023-05-24T08:07:59.033Z,1009.68
2023-05-24T08:08:54.011Z,1009.64
2023-05-24T08:09:53.986Z,1009.70
2023-05-24T08:10:53.985Z,1009.69
2023-05-24T08:11:54.075Z,1009.73
2023-05-24T08:12:53.956Z,1009.71
2023-05-24T08:13:53.958Z,1009.65
2023-05-24T08:14:53.966Z,1009.60
2023-05-24T08:15:53.986Z,1009.67
2023-05-24T08:16:54.217Z,1009.72
2023-05-24T08:17:53.957Z,1009.72
2023-05-24T08:18:58.920Z,1009.69
2023-05-24T08:19:53.903Z,1009.76
2023-05-24T08:20:53.868Z,1009.69
2023-05-24T08:21:53.850Z,1009.70
2023-05-24T08:22:53.847Z,1009.70
2023-05-24T08:23:53.850Z,1009.74
2023-05-24T08:24:53.816Z,1009.80
2023-05-24T08:25:53.803Z,1009.77
2023-05-24T08:26:53.794Z,1009.82
2023-05-24T08:27:53.826Z,1009.79
2023-05-24T08:28:53.780Z,1009.81
2023-05-24T08:29:58.814Z,1009.79
2023-05-24T08:30:53.764Z,1009.80
2023-05-24T08:31:53.778Z,1009.78
2023-05-24T08:32:53.794Z,1009.82
2023-05-24T08:33:53.715Z,1009.83
2023-05-24T08:35:00.468Z,1009.79
2023-05-24T08:35:53.713Z,1009.91
2023-05-24T08:36:53.711Z,1009.79
2023-05-24T08:37:53.688Z,1009.73
2023-05-24T08:38:53.674Z,1009.83
2023-05-24T08:39:53.643Z,1009.84
2023-05-24T08:40:58.687Z,1009.82
2023-05-24T08:42:07.936Z,1009.83
2023-05-24T08:42:53.620Z,1009.74
2023-05-24T08:43:53.653Z,1009.82
2023-05-24T08:44:53.591Z,1009.80
2023-05-24T08:45:53.596Z,1009.82
2023-05-24T08:46:53.584Z,1009.81
2023-05-24T08:47:53.672Z,1009.81
2023-05-24T08:48:53.576Z,1009.80
2023-05-24T08:49:53.536Z,1009.85
2023-05-24T08:50:53.531Z,1009.84
2023-05-24T08:51:58.539Z,1009.79
2023-05-24T08:52:53.500Z,1009.94
2023-05-24T08:53:53.507Z,1010.03
2023-05-24T08:54:53.478Z,1009.96
2023-05-24T08:55:53.477Z,1009.91
2023-05-24T08:56:53.467Z,1009.93
2023-05-24T08:57:53.446Z,1010.00
2023-05-24T08:58:53.437Z,1009.98
2023-05-24T08:59:53.456Z,1009.88
2023-05-24T09:00:53.428Z,1009.89
2023-05-24T09:01:53.447Z,1009.91
2023-05-24T09:02:58.447Z,1009.96
2023-05-24T09:03:53.430Z,1009.95
2023-05-24T09:04:53.387Z,1010.00
2023-05-24T09:05:53.372Z,1010.01
2023-05-24T09:06:53.344Z,1010.02
2023-05-24T09:07:53.329Z,1009.92
2023-05-24T09:08:53.322Z,1010.07
2023-05-24T09:09:53.341Z,1009.98
2023-05-24T09:10:55.498Z,1009.91
2023-05-24T09:11:53.306Z,1009.93
2023-05-24T09:12:53.302Z,1009.97
2023-05-24T09:13:58.290Z,1009.95
2023-05-24T09:14:53.265Z,1009.94
2023-05-24T09:15:53.880Z,1009.89
2023-05-24T09:16:53.255Z,1009.85
2023-05-24T09:17:53.246Z,1009.94
2023-05-24T09:18:53.234Z,1009.87
2023-05-24T09:19:53.250Z,1009.91
2023-05-24T09:20:53.464Z,1009.92
2023-05-24T09:21:53.184Z,1009.89
2023-05-24T09:22:53.160Z,1009.87
2023-05-24T09:23:53.163Z,1009.92
2023-05-24T09:24:58.179Z,1009.83
2023-05-24T09:25:53.130Z,1009.83
2023-05-24T09:26:53.124Z,1009.79
2023-05-24T09:27:53.149Z,1009.87
2023-05-24T09:28:53.119Z,1009.81
2023-05-24T09:29:53.097Z,1009.86
2023-05-24T09:30:53.194Z,1009.78
2023-05-24T09:31:53.177Z,1009.80
2023-05-24T09:32:53.134Z,1009.76
2023-05-24T09:33:53.039Z,1009.88
2023-05-24T09:34:53.026Z,1009.82
2023-05-24T09:35:58.036Z,1009.87
2023-05-24T09:36:53.017Z,1009.81
2023-05-24T09:37:52.998Z,1009.85
2023-05-24T09:38:52.986Z,1009.71
2023-05-24T09:39:52.964Z,1009.77
2023-05-24T09:40:52.959Z,1009.69
2023-05-24T09:41:52.940Z,1009.72
2023-05-24T09:42:52.975Z,1009.66
2023-05-24T09:43:52.920Z,1009.81
2023-05-24T09:44:52.912Z,1009.79
2023-05-24T09:45:52.908Z,1009.74
2023-05-24T09:46:58.052Z,1009.76
2023-05-24T09:47:52.922Z,1009.81
2023-05-24T09:48:52.903Z,1009.85
2023-05-24T09:49:52.854Z,1009.72
2023-05-24T09:50:52.840Z,1009.74
2023-05-24T09:51:52.940Z,1009.64
2023-05-24T09:52:52.824Z,1009.66
2023-05-24T09:53:52.810Z,1009.55
2023-05-24T09:54:52.827Z,1009.60
2023-05-24T09:55:52.790Z,1009.64
2023-05-24T09:56:52.807Z,1009.71
2023-05-24T09:57:57.785Z,1009.61
2023-05-24T09:58:52.778Z,1009.67
2023-05-24T09:59:52.743Z,1009.61
2023-05-24T10:00:52.767Z,1009.65
2023-05-24T10:01:52.776Z,1009.67
2023-05-24T10:02:53.776Z,1009.72
2023-05-24T10:03:52.904Z,1009.68
2023-05-24T10:04:52.925Z,1009.64
2023-05-24T10:05:52.683Z,1009.70
2023-05-24T10:06:52.690Z,1009.68
2023-05-24T10:07:52.662Z,1009.70
2023-05-24T10:08:57.674Z,1009.77
2023-05-24T10:09:52.628Z,1009.76
2023-05-24T10:10:52.628Z,1009.69
2023-05-24T10:11:52.611Z,1009.76
2023-05-24T10:12:52.613Z,1009.78
2023-05-24T10:13:52.579Z,1009.77
2023-05-24T10:14:52.579Z,1009.73
2023-05-24T10:15:52.586Z,1009.76
2023-05-24T10:16:52.601Z,1009.73
2023-05-24T10:17:52.590Z,1009.80
2023-05-24T10:18:52.555Z,1009.82
2023-05-24T10:19:57.594Z,1009.77
2023-05-24T10:20:52.842Z,1009.83
2023-05-24T10:21:52.554Z,1009.96
2023-05-24T10:22:52.492Z,1009.82
2023-05-24T10:23:52.473Z,1009.80
2023-05-24T10:24:52.479Z,1009.78
2023-05-24T10:25:52.457Z,1009.77
2023-05-24T10:26:52.441Z,1009.69
2023-05-24T10:27:52.427Z,1009.86
2023-05-24T10:28:52.453Z,1009.80
2023-05-24T10:29:52.414Z,1009.82
2023-05-24T10:30:57.448Z,1009.76
2023-05-24T10:31:52.385Z,1009.79
2023-05-24T10:32:52.390Z,1009.75
2023-05-24T10:33:52.688Z,1009.75
2023-05-24T10:34:52.486Z,1009.81
2023-05-24T10:35:52.334Z,1009.73
2023-05-24T10:36:52.342Z,1009.71
2023-05-24T10:37:52.319Z,1009.72
2023-05-24T10:38:52.328Z,1009.62
2023-05-24T10:39:52.297Z,1009.68
2023-05-24T10:40:52.459Z,1009.67
2023-05-24T10:41:57.283Z,1009.65
2023-05-24T10:42:52.269Z,1009.66
2023-05-24T10:44:07.992Z,1009.80
2023-05-24T10:44:52.245Z,1009.63
2023-05-24T10:45:52.305Z,1009.58
2023-05-24T10:46:52.324Z,1009.64
2023-05-24T10:47:52.202Z,1009.72
2023-05-24T10:48:52.225Z,1009.70
2023-05-24T10:49:52.192Z,1009.59
2023-05-24T10:50:52.251Z,1009.58
2023-05-24T10:51:52.151Z,1009.64
2023-05-24T10:52:57.161Z,1009.62
2023-05-24T10:53:52.131Z,1009.56
2023-05-24T10:55:03.247Z,1009.55
2023-05-24T10:55:52.149Z,1009.55
2023-05-24T10:56:52.109Z,1009.58
2023-05-24T10:57:52.154Z,1009.59
2023-05-24T10:58:52.100Z,1009.56
2023-05-24T10:59:52.061Z,1009.57
2023-05-24T11:00:52.432Z,1009.60
2023-05-24T11:01:52.121Z,1009.60
2023-05-24T11:02:52.085Z,1009.59
2023-05-24T11:03:57.045Z,1009.63
2023-05-24T11:04:52.012Z,1009.67
2023-05-24T11:05:52.220Z,1009.70
2023-05-24T11:06:52.109Z,1009.66
2023-05-24T11:07:51.980Z,1009.76
2023-05-24T11:08:51.958Z,1009.89
2023-05-24T11:09:51.946Z,1009.97
2023-05-24T11:10:51.936Z,1009.90
2023-05-24T11:11:51.939Z,1009.92
2023-05-24T11:12:51.946Z,1009.90
2023-05-24T11:13:51.903Z,1009.90
2023-05-24T11:14:56.914Z,1009.96
2023-05-24T11:15:51.913Z,1009.92
2023-05-24T11:16:52.106Z,1009.89
2023-05-24T11:17:51.893Z,1009.87
2023-05-24T11:18:51.856Z,1009.87
2023-05-24T11:19:51.905Z,1009.92
2023-05-24T11:20:51.932Z,1009.97
2023-05-24T11:21:51.828Z,1009.88
2023-05-24T11:22:51.854Z,1009.91
2023-05-24T11:23:51.796Z,1009.89
2023-05-24T11:24:51.832Z,1009.77
2023-05-24T11:25:56.788Z,1009.80
2023-05-24T11:26:51.798Z,1009.71
2023-05-24T11:27:51.830Z,1009.88
2023-05-24T11:28:51.738Z,1009.92
2023-05-24T11:29:51.726Z,1009.77
2023-05-24T11:30:51.776Z,1009.73
2023-05-24T11:31:51.758Z,1009.74
2023-05-24T11:32:51.724Z,1009.61
2023-05-24T11:33:51.681Z,1009.82
2023-05-24T11:34:51.685Z,1009.60
2023-05-24T11:35:51.673Z,1009.53
2023-05-24T11:36:51.676Z,1009.59
2023-05-24T11:37:51.643Z,1009.86
2023-05-24T11:38:56.668Z,1009.52
2023-05-24T11:39:51.616Z,1009.70
2023-05-24T11:40:51.616Z,1009.49
2023-05-24T11:41:51.590Z,1009.40
2023-05-24T11:42:51.610Z,1009.43
2023-05-24T11:43:51.582Z,1009.74
2023-05-24T11:44:51.589Z,1009.68
2023-05-24T11:45:51.595Z,1009.68
2023-05-24T11:46:51.539Z,1009.69
2023-05-24T11:47:51.569Z,1009.64
2023-05-24T11:48:51.539Z,1009.61
2023-05-24T11:49:56.534Z,1009.66
2023-05-24T11:50:51.900Z,1009.57
2023-05-24T11:51:51.505Z,1009.66
2023-05-24T11:52:51.475Z,1009.66
2023-05-24T11:53:53.121Z,1009.71
2023-05-24T11:54:51.586Z,1009.62
2023-05-24T11:55:51.481Z,1009.61
2023-05-24T11:56:51.428Z,1009.64
2023-05-24T11:57:51.417Z,1009.65
2023-05-24T11:58:51.419Z,1009.61
2023-05-24T11:59:51.400Z,1009.62
2023-05-24T12:00:51.415Z,1009.57
2023-05-24T12:01:51.374Z,1009.58
2023-05-24T12:02:57.341Z,1009.62
2023-05-24T12:03:51.543Z,1009.55
2023-05-24T12:04:51.394Z,1009.53
2023-05-24T12:05:51.333Z,1009.46
2023-05-24T12:06:51.381Z,1009.52
2023-05-24T12:07:51.312Z,1009.51
2023-05-24T12:08:51.312Z,1009.44
2023-05-24T12:09:51.286Z,1009.41
2023-05-24T12:10:51.312Z,1009.48
2023-05-24T12:11:51.304Z,1009.56
2023-05-24T12:12:51.317Z,1009.52
2023-05-24T12:13:56.275Z,1009.50
2023-05-24T12:14:51.231Z,1009.49
2023-05-24T12:15:53.286Z,1009.45
2023-05-24T12:16:51.213Z,1009.40
2023-05-24T12:17:51.248Z,1009.39
2023-05-24T12:19:02.414Z,1009.44
2023-05-24T12:19:51.218Z,1009.49
2023-05-24T12:20:51.227Z,1009.47
2023-05-24T12:21:53.413Z,1009.40
2023-05-24T12:22:51.159Z,1009.35
2023-05-24T12:23:51.136Z,1009.19
2023-05-24T12:24:56.226Z,1009.21
2023-05-24T12:25:51.118Z,1009.05
2023-05-24T12:26:51.178Z,1009.16
2023-05-24T12:27:54.178Z,1009.14
2023-05-24T12:28:51.091Z,1009.14
2023-05-24T12:29:51.069Z,1009.16
2023-05-24T12:30:51.079Z,1009.11
2023-05-24T12:31:51.090Z,1009.13
2023-05-24T12:32:51.049Z,1009.13
2023-05-24T12:33:53.583Z,1009.22
2023-05-24T12:34:51.039Z,1009.20
2023-05-24T12:35:56.027Z,1009.24
2023-05-24T12:36:51.027Z,1009.12
2023-05-24T12:37:50.999Z,1009.14
2023-05-24T12:38:50.976Z,1009.08
2023-05-24T12:39:53.087Z,1009.05
2023-05-24T12:41:07.416Z,1009.10
2023-05-24T12:41:51.951Z,1009.11
2023-05-24T12:42:50.979Z,1009.01
2023-05-24T12:43:50.927Z,1009.02
2023-05-24T12:44:50.898Z,1009.02
2023-05-24T12:45:53.526Z,1008.98
2023-05-24T12:46:56.037Z,1008.96
2023-05-24T12:47:50.940Z,1009.05
2023-05-24T12:48:50.919Z,1008.99
2023-05-24T12:49:50.863Z,1008.99
2023-05-24T12:50:50.843Z,1008.99
2023-05-24T12:51:50.835Z,1008.96
2023-05-24T12:52:50.811Z,1008.99
2023-05-24T12:53:50.800Z,1008.93
2023-05-24T12:54:50.802Z,1008.95
2023-05-24T12:55:50.796Z,1008.86
2023-05-24T12:56:52.892Z,1008.94
2023-05-24T12:57:50.760Z,1008.94
2023-05-24T12:58:50.824Z,1008.88
2023-05-24T12:59:55.756Z,1008.90
2023-05-24T13:00:50.780Z,1008.87
2023-05-24T13:01:50.725Z,1008.91
2023-05-24T13:02:50.735Z,1008.87
2023-05-24T13:03:50.693Z,1008.84
2023-05-24T13:04:50.705Z,1008.89
2023-05-24T13:05:50.767Z,1008.97
2023-05-24T13:06:50.682Z,1008.92
2023-05-24T13:07:50.649Z,1008.90
2023-05-24T13:08:50.633Z,1008.90
2023-05-24T13:09:50.630Z,1008.89
2023-05-24T13:10:55.629Z,1008.85
2023-05-24T13:11:50.594Z,1008.82
2023-05-24T13:12:50.605Z,1008.79
2023-05-24T13:13:50.583Z,1008.76
2023-05-24T13:14:52.661Z,1008.81
2023-05-24T13:15:50.556Z,1008.87
2023-05-24T13:16:50.622Z,1008.78
2023-05-24T13:17:50.654Z,1008.80
2023-05-24T13:18:50.561Z,1008.81
2023-05-24T13:19:50.557Z,1008.83
2023-05-24T13:20:50.554Z,1008.77
2023-05-24T13:21:55.521Z,1008.67
2023-05-24T13:22:50.476Z,1008.72
2023-05-24T13:23:50.475Z,1008.71
2023-05-24T13:24:50.467Z,1008.64
2023-05-24T13:25:50.439Z,1008.58
2023-05-24T13:26:53.001Z,1008.67
2023-05-24T13:27:50.429Z,1008.56
2023-05-24T13:29:21.685Z,1008.61
2023-05-24T13:30:00.905Z,1008.60
2023-05-24T13:30:50.470Z,1008.56
2023-05-24T13:31:50.476Z,1008.58
2023-05-24T13:32:55.468Z,1008.53
2023-05-24T13:33:50.362Z,1008.52
2023-05-24T13:34:50.344Z,1008.62
2023-05-24T13:35:50.330Z,1008.56
2023-05-24T13:36:50.334Z,1008.55
2023-05-24T13:37:50.315Z,1008.60
2023-05-24T13:38:56.629Z,1008.52
2023-05-24T13:39:50.307Z,1008.46
2023-05-24T13:40:50.267Z,1008.46
2023-05-24T13:41:50.314Z,1008.53
2023-05-24T13:42:50.280Z,1008.62
2023-05-24T13:43:55.260Z,1008.59
2023-05-24T13:44:50.227Z,1008.51
2023-05-24T13:45:50.226Z,1008.51
2023-05-24T13:46:50.269Z,1008.61
2023-05-24T13:47:50.245Z,1008.58
2023-05-24T13:48:50.215Z,1008.56
2023-05-24T13:49:50.170Z,1008.55
2023-05-24T13:50:50.166Z,1008.57
2023-05-24T13:51:50.160Z,1008.42
2023-05-24T13:52:50.146Z,1008.48
2023-05-24T13:53:50.133Z,1008.45
2023-05-24T13:54:55.187Z,1008.49
2023-05-24T13:55:50.103Z,1008.54
2023-05-24T13:56:50.117Z,1008.54
2023-05-24T13:57:52.061Z,1008.58
2023-05-24T13:58:50.091Z,1008.61
2023-05-24T13:59:50.056Z,1008.54
2023-05-24T14:00:50.076Z,1008.55
2023-05-24T14:01:50.134Z,1008.61
2023-05-24T14:02:50.277Z,1008.59
2023-05-24T14:03:50.036Z,1008.53
2023-05-24T14:04:50.014Z,1008.49
2023-05-24T14:05:55.131Z,1008.63
2023-05-24T14:06:50.009Z,1008.54
2023-05-24T14:07:50.003Z,1008.56
2023-05-24T14:08:49.959Z,1008.55
2023-05-24T14:09:49.957Z,1008.57
2023-05-24T14:10:49.991Z,1008.63
2023-05-24T14:11:49.921Z,1008.62
2023-05-24T14:13:03.427Z,1008.54
2023-05-24T14:15:50.157Z,1008.57
2023-05-24T14:16:54.981Z,1008.66
2023-05-24T14:17:49.897Z,1008.67
2023-05-24T14:18:49.874Z,1008.68
2023-05-24T14:19:49.896Z,1008.65
2023-05-24T14:20:49.827Z,1008.66
2023-05-24T14:21:49.825Z,1008.72
2023-05-24T14:22:49.815Z,1008.65
2023-05-24T14:23:49.802Z,1008.71
2023-05-24T14:24:49.831Z,1008.65
2023-05-24T14:25:49.786Z,1008.64
2023-05-24T14:26:49.757Z,1008.74
2023-05-24T14:27:54.766Z,1008.67
2023-05-24T14:28:49.736Z,1008.63
2023-05-24T14:29:49.731Z,1008.62
2023-05-24T14:30:49.719Z,1008.73
2023-05-24T14:31:49.918Z,1008.64
2023-05-24T14:32:49.746Z,1008.70
2023-05-24T14:33:49.692Z,1008.68
2023-05-24T14:34:49.706Z,1008.70
2023-05-24T14:35:49.656Z,1008.62
2023-05-24T14:36:49.647Z,1008.67
2023-05-24T14:37:49.631Z,1008.68
2023-05-24T14:38:54.655Z,1008.66
2023-05-24T14:39:49.634Z,1008.67
2023-05-24T14:40:49.632Z,1008.65
2023-05-24T14:41:49.584Z,1008.71
2023-05-24T14:42:49.606Z,1008.73
2023-05-24T14:43:49.573Z,1008.62
2023-05-24T14:44:49.552Z,1008.68
2023-05-24T14:45:49.628Z,1008.66
2023-05-24T14:46:49.542Z,1008.74
2023-05-24T14:47:49.545Z,1008.72
2023-05-24T14:48:49.522Z,1008.66
2023-05-24T14:49:54.543Z,1008.64
2023-05-24T14:50:49.485Z,1008.62
2023-05-24T14:51:49.472Z,1008.70
2023-05-24T14:52:49.471Z,1008.68
2023-05-24T14:53:49.461Z,1008.64
2023-05-24T14:54:49.446Z,1008.60
2023-05-24T14:55:49.433Z,1008.56
2023-05-24T14:56:49.418Z,1008.60
2023-05-24T14:57:49.433Z,1008.61
2023-05-24T14:58:49.394Z,1008.65
2023-05-24T14:59:49.397Z,1008.57
2023-05-24T15:00:54.441Z,1008.58
2023-05-24T15:01:49.628Z,1008.56
2023-05-24T15:02:49.454Z,1008.56
2023-05-24T15:03:49.389Z,1008.63
2023-05-24T15:04:49.344Z,1008.58
2023-05-24T15:05:49.346Z,1008.48
2023-05-24T15:06:49.324Z,1008.52
2023-05-24T15:07:49.315Z,1008.53
2023-05-24T15:08:49.281Z,1008.43
2023-05-24T15:09:49.281Z,1008.46
2023-05-24T15:10:49.288Z,1008.50
2023-05-24T15:11:54.280Z,1008.53
2023-05-24T15:12:49.268Z,1008.49
2023-05-24T15:13:49.225Z,1008.58
2023-05-24T15:14:49.213Z,1008.66
2023-05-24T15:15:49.215Z,1008.62
2023-05-24T15:16:49.279Z,1008.66
2023-05-24T15:17:49.253Z,1008.57
2023-05-24T15:18:49.190Z,1008.56
2023-05-24T15:19:49.195Z,1008.56
2023-05-24T15:20:49.395Z,1008.54
2023-05-24T15:21:49.168Z,1008.51
2023-05-24T15:22:54.153Z,1008.58
2023-05-24T15:23:49.116Z,1008.52
2023-05-24T15:24:49.119Z,1008.55
2023-05-24T15:25:49.102Z,1008.59
2023-05-24T15:26:49.086Z,1008.53
2023-05-24T15:27:49.083Z,1008.54
2023-05-24T15:28:49.065Z,1008.54
2023-05-24T15:29:49.052Z,1008.55
2023-05-24T15:30:49.114Z,1008.52
2023-05-24T15:31:49.096Z,1008.54
2023-05-24T15:32:49.126Z,1008.55
2023-05-24T15:33:54.027Z,1008.55
2023-05-24T15:34:48.992Z,1008.55
2023-05-24T15:35:48.994Z,1008.50
2023-05-24T15:36:49.076Z,1008.61
2023-05-24T15:37:49.002Z,1008.54
2023-05-24T15:38:48.951Z,1008.57
2023-05-24T15:39:48.938Z,1008.64
2023-05-24T15:40:48.935Z,1008.57
2023-05-24T15:41:48.912Z,1008.60
2023-05-24T15:42:48.908Z,1008.65
2023-05-24T15:43:48.888Z,1008.58
2023-05-24T15:44:53.935Z,1008.57
2023-05-24T15:45:48.890Z,1008.58
2023-05-24T15:46:48.879Z,1008.59
2023-05-24T15:47:48.873Z,1008.53
2023-05-24T15:48:48.859Z,1008.54
2023-05-24T15:49:48.837Z,1008.56
2023-05-24T15:51:25.481Z,1008.47
2023-05-24T15:52:03.488Z,1008.51
2023-05-24T15:52:48.792Z,1008.48
2023-05-24T15:53:48.804Z,1008.52
2023-05-24T15:54:48.795Z,1008.52
2023-05-24T15:55:53.783Z,1008.47
2023-05-24T15:56:48.746Z,1008.45
2023-05-24T15:57:48.731Z,1008.50
2023-05-24T15:58:48.736Z,1008.44
2023-05-24T15:59:48.719Z,1008.51
2023-05-24T16:00:48.708Z,1008.41
2023-05-24T16:01:48.749Z,1008.41
2023-05-24T16:02:48.763Z,1008.50
2023-05-24T16:03:48.837Z,1008.45
2023-05-24T16:04:48.650Z,1008.46
2023-05-24T16:05:48.638Z,1008.49
2023-05-24T16:06:53.678Z,1008.45
2023-05-24T16:07:48.617Z,1008.54
2023-05-24T16:08:48.607Z,1008.53
2023-05-24T16:09:48.657Z,1008.57
2023-05-24T16:10:48.580Z,1008.53
2023-05-24T16:11:48.589Z,1008.53
2023-05-24T16:12:48.582Z,1008.52
2023-05-24T16:13:48.566Z,1008.54
2023-05-24T16:14:48.530Z,1008.48
2023-05-24T16:15:48.527Z,1008.43
2023-05-24T16:16:48.517Z,1008.55
2023-05-24T16:17:53.573Z,1008.54
2023-05-24T16:18:48.493Z,1008.45
2023-05-24T16:19:48.478Z,1008.48
2023-05-24T16:20:48.586Z,1008.44
2023-05-24T16:21:48.503Z,1008.35
2023-05-24T16:22:48.480Z,1008.43
2023-05-24T16:23:48.442Z,1008.51
2023-05-24T16:24:48.430Z,1008.49
2023-05-24T16:25:48.430Z,1008.52
2023-05-24T16:26:48.428Z,1008.53
2023-05-24T16:27:48.390Z,1008.49
2023-05-24T16:28:53.402Z,1008.52
2023-05-24T16:29:48.362Z,1008.52
2023-05-24T16:30:48.368Z,1008.55
2023-05-24T16:31:48.445Z,1008.51
2023-05-24T16:32:48.385Z,1008.40
2023-05-24T16:33:48.320Z,1008.41
2023-05-24T16:34:56.640Z,1008.49
2023-05-24T16:35:48.297Z,1008.42
2023-05-24T16:36:48.327Z,1008.38
2023-05-24T16:37:48.272Z,1008.42
2023-05-24T16:38:48.264Z,1008.42
2023-05-24T16:39:53.280Z,1008.41
2023-05-24T16:40:48.261Z,1008.42
2023-05-24T16:41:48.268Z,1008.42
2023-05-24T16:42:48.234Z,1008.39
2023-05-24T16:43:48.214Z,1008.40
2023-05-24T16:44:48.198Z,1008.39
2023-05-24T16:45:48.207Z,1008.42
2023-05-24T16:46:48.277Z,1008.46
2023-05-24T16:47:48.326Z,1008.40
2023-05-24T16:48:48.195Z,1008.38
2023-05-24T16:49:48.136Z,1008.45
2023-05-24T16:50:53.164Z,1008.39
2023-05-24T16:51:48.146Z,1008.40
2023-05-24T16:52:48.103Z,1008.41
2023-05-24T16:53:48.101Z,1008.41
2023-05-24T16:54:48.115Z,1008.38
2023-05-24T16:55:48.088Z,1008.44
2023-05-24T16:56:48.070Z,1008.42
2023-05-24T16:57:48.160Z,1008.47
2023-05-24T16:58:48.065Z,1008.46
2023-05-24T16:59:50.623Z,1008.43
2023-05-24T17:00:48.545Z,1008.43
2023-05-24T17:01:53.513Z,1008.50
2023-05-24T17:02:48.067Z,1008.50
2023-05-24T17:03:48.104Z,1008.46
2023-05-24T17:04:47.997Z,1008.40
2023-05-24T17:05:47.957Z,1008.47
2023-05-24T17:06:47.964Z,1008.40
2023-05-24T17:07:47.954Z,1008.44